Latest METAR Data

Below are the latest METARs ("Meteorological Services to Airmen Reports"), for RNAS Culdrose and Newquay Airport.

EGDR - RNAS Culdrose
Distance from station: SW 6mi, 9km
Updated: Wed, 23-Sep-2020 3:50pm BST
Mostly Cloudy
Mostly Cloudy
 Wind from WNW
Wind: WNW 15 mph , 24 km/h
Temperature: 57°F , 14°C
Dew Point: 46°F , 8°C
Humidity: 67%
Barometer: 29.59 inHg , 1002 hPa
Clouds: Mostly Cloudy
Visibility: 6 miles , 10 km
Cloud details: Partly Cloudy 2700 ft
Mostly Cloudy 8000 ft
2020/09/23 14:50 EGDR 231450Z 30013KT 9999 SCT027 BKN080 14/08 Q1002 TEMPO 2000 +SHRA SCT007 RMK BLU TEMPO YLO2
EGHQ - Newquay Airport
Distance from station: NE 21mi, 34km
Updated: Wed, 23-Sep-2020 4:20pm BST
Nearby showers, Partly cloudy
Nearby showers, Partly cloudy
 Wind from WNW
Wind: WNW 17 mph , 28 km/h
Temperature: 55°F , 13°C
Dew Point: 48°F , 9°C
Humidity: 77%
Barometer: 29.59 inHg , 1002 hPa
Summary: Nearby Showers
Clouds: Partly Cloudy
Visibility: 6 miles , 10 km
Cloud details: Few Clouds 2000 ft
Partly Cloudy 3400 ft
2020/09/23 15:20 EGHQ 231520Z 29015KT 9999 VCSH FEW020 SCT034 13/09 Q1002
 
EGTE - Exeter Airport
Distance from station: ENE 88mi, 141km
Updated: Wed, 23-Sep-2020 4:20pm BST
Few Clouds
Few Clouds
 Wind from W
Wind: W 17 mph , 28 km/h
Temperature: 61°F , 16°C
Dew Point: 48°F , 9°C
Humidity: 63%
Barometer: 29.53 inHg , 1000 hPa
Clouds: Few Clouds
Visibility: 6 miles , 10 km
Cloud details: Few Clouds 3000 ft
2020/09/23 15:20 EGTE 231520Z 27015KT 9999 FEW030 16/09 Q1000
EGHE - St Marys, IOS
Distance from station: W 51mi, 82km
Updated: Wed, 23-Sep-2020 4:20pm BST
Light rain, Partly cloudy
Light rain, Partly cloudy
 Wind from WNW
Wind: WNW 9 mph , 15 km/h
Temperature: 50°F , 10°C
Wind Chill: 46°F , 8°C
Dew Point: 46°F , 8°C
Humidity: 88%
Barometer: 29.65 inHg , 1004 hPa
Summary: Light Rain
Clouds: Partly Cloudy
Visibility: 6 miles , 10 km
Cloud details: Few Clouds 1000 ft
Partly Cloudy 4200 ft
2020/09/23 15:20 EGHE 231520Z 30008KT 9999 -RA FEW010 SCT042 10/08 Q1004

Metar display script from Saratoga-Weather.org

 

 

UK - WEATHER STATION TOPSITES - UK World Weather Websites

Copyright © Carnkie Weather 2009 - 2020.